<?xml version='1.0' encoding='UTF-8'?>
<gpx version="1.1" creator="https://www.komoot.de" xmlns="http://www.topografix.com/GPX/1/1" xmlns:xsi="http://www.w3.org/2001/XMLSchema-instance" xsi:schemaLocation="http://www.topografix.com/GPX/1/1 http://www.topografix.com/GPX/1/1/gpx.xsd">
  <metadata>
    <name>Fietsroute Winterswijk Tertiar en Kwartair I</name>
    <author>
      <link href="https://www.komoot.de">
        <text>komoot</text>
        <type>text/html</type>
      </link>
    </author>
  </metadata>
  <trk>
    <name>Fietsroute Winterswijk Tertiar en Kwartair I</name>
    <trkseg>
      <trkpt lat="51.972334" lon="6.717934">
        <ele>37.738712</ele>
        <time>2020-10-03T17:36:43.180Z</time>
      </trkpt>
      <trkpt lat="51.972311" lon="6.718100">
        <ele>37.738712</ele>
        <time>2020-10-03T17:36:45.980Z</time>
      </trkpt>
      <trkpt lat="51.972315" lon="6.718433">
        <ele>37.738712</ele>
        <time>2020-10-03T17:36:51.743Z</time>
      </trkpt>
      <trkpt lat="51.972367" lon="6.718530">
        <ele>37.738712</ele>
        <time>2020-10-03T17:36:53.961Z</time>
      </trkpt>
      <trkpt lat="51.972403" lon="6.718595">
        <ele>37.738712</ele>
        <time>2020-10-03T17:36:55.348Z</time>
      </trkpt>
      <trkpt lat="51.972477" lon="6.718627">
        <ele>37.738712</ele>
        <time>2020-10-03T17:36:57.507Z</time>
      </trkpt>
      <trkpt lat="51.972828" lon="6.718684">
        <ele>37.738712</ele>
        <time>2020-10-03T17:37:07.285Z</time>
      </trkpt>
      <trkpt lat="51.972913" lon="6.718699">
        <ele>37.720856</ele>
        <time>2020-10-03T17:37:09.689Z</time>
      </trkpt>
      <trkpt lat="51.973377" lon="6.718771">
        <ele>37.578759</ele>
        <time>2020-10-03T17:37:22.683Z</time>
      </trkpt>
      <trkpt lat="51.973460" lon="6.718829">
        <ele>37.551211</ele>
        <time>2020-10-03T17:37:25.085Z</time>
      </trkpt>
      <trkpt lat="51.974209" lon="6.719986">
        <ele>37.236014</ele>
        <time>2020-10-03T17:37:54.243Z</time>
      </trkpt>
      <trkpt lat="51.974291" lon="6.720051">
        <ele>37.208195</ele>
        <time>2020-10-03T17:37:56.883Z</time>
      </trkpt>
      <trkpt lat="51.974327" lon="6.720083">
        <ele>37.195683</ele>
        <time>2020-10-03T17:37:58.074Z</time>
      </trkpt>
      <trkpt lat="51.974363" lon="6.720111">
        <ele>37.191068</ele>
        <time>2020-10-03T17:37:59.204Z</time>
      </trkpt>
      <trkpt lat="51.974344" lon="6.720199">
        <ele>37.192807</ele>
        <time>2020-10-03T17:38:00.571Z</time>
      </trkpt>
      <trkpt lat="51.974352" lon="6.720386">
        <ele>37.196302</ele>
        <time>2020-10-03T17:38:03.314Z</time>
      </trkpt>
      <trkpt lat="51.974373" lon="6.720460">
        <ele>37.197821</ele>
        <time>2020-10-03T17:38:04.441Z</time>
      </trkpt>
      <trkpt lat="51.974394" lon="6.720626">
        <ele>37.200981</ele>
        <time>2020-10-03T17:38:06.735Z</time>
      </trkpt>
      <trkpt lat="51.974389" lon="6.721085">
        <ele>37.209540</ele>
        <time>2020-10-03T17:38:13.423Z</time>
      </trkpt>
      <trkpt lat="51.974404" lon="6.721270">
        <ele>37.213019</ele>
        <time>2020-10-03T17:38:15.935Z</time>
      </trkpt>
      <trkpt lat="51.974472" lon="6.721643">
        <ele>37.220272</ele>
        <time>2020-10-03T17:38:21.602Z</time>
      </trkpt>
      <trkpt lat="51.974581" lon="6.722226">
        <ele>37.231631</ele>
        <time>2020-10-03T17:38:30.058Z</time>
      </trkpt>
      <trkpt lat="51.974624" lon="6.722434">
        <ele>37.235722</ele>
        <time>2020-10-03T17:38:32.955Z</time>
      </trkpt>
      <trkpt lat="51.974658" lon="6.722584">
        <ele>37.238702</ele>
        <time>2020-10-03T17:38:35.187Z</time>
      </trkpt>
      <trkpt lat="51.974685" lon="6.722731">
        <ele>37.241562</ele>
        <time>2020-10-03T17:38:37.304Z</time>
      </trkpt>
      <trkpt lat="51.974701" lon="6.722828">
        <ele>37.243434</ele>
        <time>2020-10-03T17:38:38.512Z</time>
      </trkpt>
      <trkpt lat="51.974719" lon="6.723310">
        <ele>37.230301</ele>
        <time>2020-10-03T17:38:45.169Z</time>
      </trkpt>
      <trkpt lat="51.974602" lon="6.724443">
        <ele>37.189430</ele>
        <time>2020-10-03T17:39:00.832Z</time>
      </trkpt>
      <trkpt lat="51.974586" lon="6.724477">
        <ele>37.187908</ele>
        <time>2020-10-03T17:39:01.334Z</time>
      </trkpt>
      <trkpt lat="51.974553" lon="6.724520">
        <ele>37.185464</ele>
        <time>2020-10-03T17:39:02.229Z</time>
      </trkpt>
      <trkpt lat="51.974493" lon="6.724561">
        <ele>37.181704</ele>
        <time>2020-10-03T17:39:03.735Z</time>
      </trkpt>
      <trkpt lat="51.974432" lon="6.724590">
        <ele>37.178033</ele>
        <time>2020-10-03T17:39:05.147Z</time>
      </trkpt>
      <trkpt lat="51.974430" lon="6.724738">
        <ele>37.172766</ele>
        <time>2020-10-03T17:39:07.177Z</time>
      </trkpt>
      <trkpt lat="51.974429" lon="6.724889">
        <ele>37.167394</ele>
        <time>2020-10-03T17:39:09.134Z</time>
      </trkpt>
      <trkpt lat="51.974459" lon="6.724927">
        <ele>37.165196</ele>
        <time>2020-10-03T17:39:09.909Z</time>
      </trkpt>
      <trkpt lat="51.974488" lon="6.724963">
        <ele>37.163088</ele>
        <time>2020-10-03T17:39:10.742Z</time>
      </trkpt>
      <trkpt lat="51.974574" lon="6.725215">
        <ele>37.152839</ele>
        <time>2020-10-03T17:39:14.764Z</time>
      </trkpt>
      <trkpt lat="51.974610" lon="6.725815">
        <ele>37.147133</ele>
        <time>2020-10-03T17:39:22.965Z</time>
      </trkpt>
      <trkpt lat="51.974649" lon="6.726076">
        <ele>37.153317</ele>
        <time>2020-10-03T17:39:26.516Z</time>
      </trkpt>
      <trkpt lat="51.974696" lon="6.726909">
        <ele>37.172578</ele>
        <time>2020-10-03T17:39:37.919Z</time>
      </trkpt>
      <trkpt lat="51.974871" lon="6.729675">
        <ele>37.233376</ele>
        <time>2020-10-03T17:40:16.877Z</time>
      </trkpt>
      <trkpt lat="51.974879" lon="6.729804">
        <ele>37.236023</ele>
        <time>2020-10-03T17:40:18.638Z</time>
      </trkpt>
      <trkpt lat="51.974882" lon="6.729855">
        <ele>37.237068</ele>
        <time>2020-10-03T17:40:19.324Z</time>
      </trkpt>
      <trkpt lat="51.974984" lon="6.731640">
        <ele>37.333133</ele>
        <time>2020-10-03T17:40:43.909Z</time>
      </trkpt>
      <trkpt lat="51.975078" lon="6.733368">
        <ele>37.726674</ele>
        <time>2020-10-03T17:41:09.560Z</time>
      </trkpt>
      <trkpt lat="51.975093" lon="6.733715">
        <ele>37.805588</ele>
        <time>2020-10-03T17:41:14.786Z</time>
      </trkpt>
      <trkpt lat="51.975104" lon="6.733962">
        <ele>37.861769</ele>
        <time>2020-10-03T17:41:18.392Z</time>
      </trkpt>
      <trkpt lat="51.975128" lon="6.734371">
        <ele>37.957365</ele>
        <time>2020-10-03T17:41:24.463Z</time>
      </trkpt>
      <trkpt lat="51.975155" lon="6.734842">
        <ele>38.075025</ele>
        <time>2020-10-03T17:41:31.358Z</time>
      </trkpt>
      <trkpt lat="51.975160" lon="6.734929">
        <ele>38.096759</ele>
        <time>2020-10-03T17:41:32.685Z</time>
      </trkpt>
      <trkpt lat="51.975223" lon="6.736144">
        <ele>38.400038</ele>
        <time>2020-10-03T17:41:50.690Z</time>
      </trkpt>
      <trkpt lat="51.975222" lon="6.736446">
        <ele>38.475156</ele>
        <time>2020-10-03T17:41:55.122Z</time>
      </trkpt>
      <trkpt lat="51.975295" lon="6.737816">
        <ele>38.780343</ele>
        <time>2020-10-03T17:42:15.461Z</time>
      </trkpt>
      <trkpt lat="51.975336" lon="6.738201">
        <ele>38.855248</ele>
        <time>2020-10-03T17:42:21.219Z</time>
      </trkpt>
      <trkpt lat="51.975496" lon="6.738860">
        <ele>38.991046</ele>
        <time>2020-10-03T17:42:31.603Z</time>
      </trkpt>
      <trkpt lat="51.975780" lon="6.739650">
        <ele>39.166403</ele>
        <time>2020-10-03T17:42:44.596Z</time>
      </trkpt>
      <trkpt lat="51.975766" lon="6.739755">
        <ele>39.186999</ele>
        <time>2020-10-03T17:42:46.199Z</time>
      </trkpt>
      <trkpt lat="51.975768" lon="6.739844">
        <ele>39.204073</ele>
        <time>2020-10-03T17:42:47.488Z</time>
      </trkpt>
      <trkpt lat="51.975773" lon="6.739918">
        <ele>39.216158</ele>
        <time>2020-10-03T17:42:48.564Z</time>
      </trkpt>
      <trkpt lat="51.975813" lon="6.740029">
        <ele>39.215393</ele>
        <time>2020-10-03T17:42:50.325Z</time>
      </trkpt>
      <trkpt lat="51.975813" lon="6.740029">
        <ele>39.215393</ele>
        <time>2020-10-03T17:42:50.341Z</time>
      </trkpt>
      <trkpt lat="51.975876" lon="6.740208">
        <ele>39.214167</ele>
        <time>2020-10-03T17:42:53.110Z</time>
      </trkpt>
      <trkpt lat="51.975814" lon="6.740231">
        <ele>39.213553</ele>
        <time>2020-10-03T17:42:54.634Z</time>
      </trkpt>
      <trkpt lat="51.975692" lon="6.740250">
        <ele>39.212370</ele>
        <time>2020-10-03T17:42:57.512Z</time>
      </trkpt>
      <trkpt lat="51.975512" lon="6.740322">
        <ele>39.210581</ele>
        <time>2020-10-03T17:43:01.727Z</time>
      </trkpt>
      <trkpt lat="51.974392" lon="6.740121">
        <ele>39.199702</ele>
        <time>2020-10-03T17:43:27.800Z</time>
      </trkpt>
      <trkpt lat="51.973862" lon="6.740002">
        <ele>39.071223</ele>
        <time>2020-10-03T17:43:39.505Z</time>
      </trkpt>
      <trkpt lat="51.974392" lon="6.740121">
        <ele>38.918716</ele>
        <time>2020-10-03T17:43:51.196Z</time>
      </trkpt>
      <trkpt lat="51.974328" lon="6.743832">
        <ele>38.429714</ele>
        <time>2020-10-03T17:45:14.148Z</time>
      </trkpt>
      <trkpt lat="51.974329" lon="6.743935">
        <ele>38.418651</ele>
        <time>2020-10-03T17:45:15.732Z</time>
      </trkpt>
      <trkpt lat="51.972486" lon="6.753497">
        <ele>39.109682</ele>
        <time>2020-10-03T17:47:51.799Z</time>
      </trkpt>
      <trkpt lat="51.972379" lon="6.754068">
        <ele>39.160031</ele>
        <time>2020-10-03T17:48:01.337Z</time>
      </trkpt>
      <trkpt lat="51.972242" lon="6.754775">
        <ele>39.222556</ele>
        <time>2020-10-03T17:48:13.115Z</time>
      </trkpt>
      <trkpt lat="51.971975" lon="6.756148">
        <ele>39.269803</ele>
        <time>2020-10-03T17:48:34.846Z</time>
      </trkpt>
      <trkpt lat="51.971958" lon="6.756238">
        <ele>39.267608</ele>
        <time>2020-10-03T17:48:36.359Z</time>
      </trkpt>
      <trkpt lat="51.971939" lon="6.756232">
        <ele>39.266876</ele>
        <time>2020-10-03T17:48:36.914Z</time>
      </trkpt>
      <trkpt lat="51.971930" lon="6.756292">
        <ele>39.265436</ele>
        <time>2020-10-03T17:48:38.362Z</time>
      </trkpt>
      <trkpt lat="51.971915" lon="6.756392">
        <ele>39.263036</ele>
        <time>2020-10-03T17:48:40.763Z</time>
      </trkpt>
      <trkpt lat="51.970983" lon="6.755943">
        <ele>39.226246</ele>
        <time>2020-10-03T17:49:04.520Z</time>
      </trkpt>
      <trkpt lat="51.970971" lon="6.755350">
        <ele>39.220290</ele>
        <time>2020-10-03T17:49:12.861Z</time>
      </trkpt>
      <trkpt lat="51.968016" lon="6.752726">
        <ele>39.383139</ele>
        <time>2020-10-03T17:51:18.297Z</time>
      </trkpt>
      <trkpt lat="51.967995" lon="6.752708">
        <ele>39.384997</ele>
        <time>2020-10-03T17:51:19.392Z</time>
      </trkpt>
      <trkpt lat="51.968030" lon="6.751747">
        <ele>39.644502</ele>
        <time>2020-10-03T17:51:33.233Z</time>
      </trkpt>
      <trkpt lat="51.968047" lon="6.751461">
        <ele>39.729484</ele>
        <time>2020-10-03T17:51:37.713Z</time>
      </trkpt>
      <trkpt lat="51.968085" lon="6.751179">
        <ele>39.814861</ele>
        <time>2020-10-03T17:51:41.818Z</time>
      </trkpt>
      <trkpt lat="51.968384" lon="6.749395">
        <ele>40.378083</ele>
        <time>2020-10-03T17:52:10.235Z</time>
      </trkpt>
      <trkpt lat="51.966230" lon="6.749904">
        <ele>41.226756</ele>
        <time>2020-10-03T17:53:05.477Z</time>
      </trkpt>
      <trkpt lat="51.965842" lon="6.749994">
        <ele>41.213225</ele>
        <time>2020-10-03T17:53:14.283Z</time>
      </trkpt>
      <trkpt lat="51.965622" lon="6.750045">
        <ele>41.205553</ele>
        <time>2020-10-03T17:53:19.531Z</time>
      </trkpt>
      <trkpt lat="51.964484" lon="6.750357">
        <ele>40.915331</ele>
        <time>2020-10-03T17:53:46.033Z</time>
      </trkpt>
      <trkpt lat="51.963015" lon="6.750718">
        <ele>40.276161</ele>
        <time>2020-10-03T17:54:20.263Z</time>
      </trkpt>
      <trkpt lat="51.962804" lon="6.750567">
        <ele>40.221452</ele>
        <time>2020-10-03T17:54:25.643Z</time>
      </trkpt>
      <trkpt lat="51.962395" lon="6.750076">
        <ele>40.100759</ele>
        <time>2020-10-03T17:54:37.975Z</time>
      </trkpt>
      <trkpt lat="51.962265" lon="6.749883">
        <ele>40.058960</ele>
        <time>2020-10-03T17:54:42.123Z</time>
      </trkpt>
      <trkpt lat="51.962096" lon="6.749639">
        <ele>40.005296</ele>
        <time>2020-10-03T17:54:47.750Z</time>
      </trkpt>
      <trkpt lat="51.961638" lon="6.749191">
        <ele>39.934605</ele>
        <time>2020-10-03T17:55:00.873Z</time>
      </trkpt>
      <trkpt lat="51.960939" lon="6.748901">
        <ele>40.056507</ele>
        <time>2020-10-03T17:55:18.791Z</time>
      </trkpt>
      <trkpt lat="51.960724" lon="6.748906">
        <ele>40.092837</ele>
        <time>2020-10-03T17:55:24.286Z</time>
      </trkpt>
      <trkpt lat="51.960377" lon="6.749126">
        <ele>40.155782</ele>
        <time>2020-10-03T17:55:34.136Z</time>
      </trkpt>
      <trkpt lat="51.959819" lon="6.749625">
        <ele>40.281835</ele>
        <time>2020-10-03T17:55:50.716Z</time>
      </trkpt>
      <trkpt lat="51.959569" lon="6.749746">
        <ele>40.342713</ele>
        <time>2020-10-03T17:55:57.464Z</time>
      </trkpt>
      <trkpt lat="51.959175" lon="6.749684">
        <ele>40.435087</ele>
        <time>2020-10-03T17:56:07.541Z</time>
      </trkpt>
      <trkpt lat="51.959158" lon="6.749675">
        <ele>40.439260</ele>
        <time>2020-10-03T17:56:08.076Z</time>
      </trkpt>
      <trkpt lat="51.959175" lon="6.749684">
        <ele>40.443433</ele>
        <time>2020-10-03T17:56:08.919Z</time>
      </trkpt>
      <trkpt lat="51.959143" lon="6.749858">
        <ele>40.469544</ele>
        <time>2020-10-03T17:56:11.927Z</time>
      </trkpt>
      <trkpt lat="51.959101" lon="6.750564">
        <ele>40.571539</ele>
        <time>2020-10-03T17:56:22.955Z</time>
      </trkpt>
      <trkpt lat="51.958601" lon="6.751667">
        <ele>40.983105</ele>
        <time>2020-10-03T17:56:44.236Z</time>
      </trkpt>
      <trkpt lat="51.958616" lon="6.752793">
        <ele>41.405328</ele>
        <time>2020-10-03T17:57:03.292Z</time>
      </trkpt>
      <trkpt lat="51.958520" lon="6.753748">
        <ele>41.773885</ele>
        <time>2020-10-03T17:57:20.445Z</time>
      </trkpt>
      <trkpt lat="51.958500" lon="6.754085">
        <ele>41.919703</ele>
        <time>2020-10-03T17:57:28.150Z</time>
      </trkpt>
      <trkpt lat="51.958570" lon="6.754670">
        <ele>42.176369</ele>
        <time>2020-10-03T17:57:40.476Z</time>
      </trkpt>
      <trkpt lat="51.958585" lon="6.755458">
        <ele>42.515923</ele>
        <time>2020-10-03T17:57:55.844Z</time>
      </trkpt>
      <trkpt lat="51.958550" lon="6.755830">
        <ele>42.678001</ele>
        <time>2020-10-03T17:58:03.704Z</time>
      </trkpt>
      <trkpt lat="51.958490" lon="6.755980">
        <ele>42.755023</ele>
        <time>2020-10-03T17:58:06.172Z</time>
      </trkpt>
      <trkpt lat="51.958380" lon="6.756120">
        <ele>42.852730</ele>
        <time>2020-10-03T17:58:09.848Z</time>
      </trkpt>
      <trkpt lat="51.958230" lon="6.756230">
        <ele>42.967777</ele>
        <time>2020-10-03T17:58:14.114Z</time>
      </trkpt>
      <trkpt lat="51.957840" lon="6.756250">
        <ele>42.612622</ele>
        <time>2020-10-03T17:58:22.466Z</time>
      </trkpt>
      <trkpt lat="51.956290" lon="6.756540">
        <ele>41.050470</ele>
        <time>2020-10-03T17:58:51.376Z</time>
      </trkpt>
      <trkpt lat="51.956082" lon="6.756465">
        <ele>40.899523</ele>
        <time>2020-10-03T17:58:55.231Z</time>
      </trkpt>
      <trkpt lat="51.955901" lon="6.756266">
        <ele>40.744636</ele>
        <time>2020-10-03T17:58:59.106Z</time>
      </trkpt>
      <trkpt lat="51.955856" lon="6.756201">
        <ele>40.701956</ele>
        <time>2020-10-03T17:59:00.211Z</time>
      </trkpt>
      <trkpt lat="51.954741" lon="6.754715">
        <ele>39.949193</ele>
        <time>2020-10-03T17:59:30.925Z</time>
      </trkpt>
      <trkpt lat="51.954021" lon="6.753779">
        <ele>40.245595</ele>
        <time>2020-10-03T17:59:53.380Z</time>
      </trkpt>
      <trkpt lat="51.953924" lon="6.753653">
        <ele>40.285515</ele>
        <time>2020-10-03T17:59:56.425Z</time>
      </trkpt>
      <trkpt lat="51.953330" lon="6.753095">
        <ele>40.409006</ele>
        <time>2020-10-03T18:00:13.040Z</time>
      </trkpt>
      <trkpt lat="51.952755" lon="6.752581">
        <ele>40.295276</ele>
        <time>2020-10-03T18:00:27.701Z</time>
      </trkpt>
      <trkpt lat="51.952613" lon="6.752456">
        <ele>40.267289</ele>
        <time>2020-10-03T18:00:31.162Z</time>
      </trkpt>
      <trkpt lat="51.952478" lon="6.752337">
        <ele>40.240673</ele>
        <time>2020-10-03T18:00:34.090Z</time>
      </trkpt>
      <trkpt lat="51.952435" lon="6.752464">
        <ele>40.225202</ele>
        <time>2020-10-03T18:00:35.995Z</time>
      </trkpt>
      <trkpt lat="51.952233" lon="6.752900">
        <ele>40.166964</ele>
        <time>2020-10-03T18:00:42.759Z</time>
      </trkpt>
      <trkpt lat="51.952171" lon="6.753107">
        <ele>40.142391</ele>
        <time>2020-10-03T18:00:45.711Z</time>
      </trkpt>
      <trkpt lat="51.952089" lon="6.753051">
        <ele>40.132501</ele>
        <time>2020-10-03T18:00:47.487Z</time>
      </trkpt>
      <trkpt lat="51.952034" lon="6.753012">
        <ele>40.135095</ele>
        <time>2020-10-03T18:00:48.706Z</time>
      </trkpt>
      <trkpt lat="51.951926" lon="6.752976">
        <ele>40.139858</ele>
        <time>2020-10-03T18:00:51.239Z</time>
      </trkpt>
      <trkpt lat="51.951805" lon="6.753032">
        <ele>40.145294</ele>
        <time>2020-10-03T18:00:53.897Z</time>
      </trkpt>
      <trkpt lat="51.951742" lon="6.753142">
        <ele>40.149292</ele>
        <time>2020-10-03T18:00:55.773Z</time>
      </trkpt>
      <trkpt lat="51.951477" lon="6.753451">
        <ele>40.163390</ele>
        <time>2020-10-03T18:01:02.948Z</time>
      </trkpt>
      <trkpt lat="51.950890" lon="6.754104">
        <ele>40.194138</ele>
        <time>2020-10-03T18:01:19.876Z</time>
      </trkpt>
      <trkpt lat="51.950677" lon="6.754340">
        <ele>40.205280</ele>
        <time>2020-10-03T18:01:25.989Z</time>
      </trkpt>
      <trkpt lat="51.950206" lon="6.754854">
        <ele>40.272974</ele>
        <time>2020-10-03T18:01:39.036Z</time>
      </trkpt>
      <trkpt lat="51.949528" lon="6.755682">
        <ele>40.386095</ele>
        <time>2020-10-03T18:01:58.337Z</time>
      </trkpt>
      <trkpt lat="51.948983" lon="6.756556">
        <ele>40.499068</ele>
        <time>2020-10-03T18:02:15.557Z</time>
      </trkpt>
      <trkpt lat="51.948390" lon="6.757120">
        <ele>40.615883</ele>
        <time>2020-10-03T18:02:31.033Z</time>
      </trkpt>
      <trkpt lat="51.947198" lon="6.759578">
        <ele>41.101362</ele>
        <time>2020-10-03T18:03:16.216Z</time>
      </trkpt>
      <trkpt lat="51.946455" lon="6.760470">
        <ele>41.359506</ele>
        <time>2020-10-03T18:03:38.029Z</time>
      </trkpt>
      <trkpt lat="51.946270" lon="6.760898">
        <ele>41.419096</ele>
        <time>2020-10-03T18:03:45.564Z</time>
      </trkpt>
      <trkpt lat="51.946099" lon="6.762108">
        <ele>41.560606</ele>
        <time>2020-10-03T18:04:03.294Z</time>
      </trkpt>
      <trkpt lat="51.945473" lon="6.762850">
        <ele>41.654388</ele>
        <time>2020-10-03T18:04:20.896Z</time>
      </trkpt>
      <trkpt lat="51.944320" lon="6.763930">
        <ele>41.681701</ele>
        <time>2020-10-03T18:04:50.369Z</time>
      </trkpt>
      <trkpt lat="51.943940" lon="6.764430">
        <ele>41.757714</ele>
        <time>2020-10-03T18:05:01.125Z</time>
      </trkpt>
      <trkpt lat="51.943776" lon="6.764760">
        <ele>41.816337</ele>
        <time>2020-10-03T18:05:06.997Z</time>
      </trkpt>
      <trkpt lat="51.943422" lon="6.766140">
        <ele>42.023056</ele>
        <time>2020-10-03T18:05:28.352Z</time>
      </trkpt>
      <trkpt lat="51.943155" lon="6.766649">
        <ele>42.133166</ele>
        <time>2020-10-03T18:05:38.383Z</time>
      </trkpt>
      <trkpt lat="51.942604" lon="6.767665">
        <ele>42.443499</ele>
        <time>2020-10-03T18:05:59.020Z</time>
      </trkpt>
      <trkpt lat="51.941999" lon="6.768700">
        <ele>42.745636</ele>
        <time>2020-10-03T18:06:19.870Z</time>
      </trkpt>
      <trkpt lat="51.941129" lon="6.769658">
        <ele>42.376447</ele>
        <time>2020-10-03T18:06:43.262Z</time>
      </trkpt>
      <trkpt lat="51.940942" lon="6.769786">
        <ele>42.305185</ele>
        <time>2020-10-03T18:06:47.475Z</time>
      </trkpt>
      <trkpt lat="51.939509" lon="6.770729">
        <ele>41.716159</ele>
        <time>2020-10-03T18:07:19.952Z</time>
      </trkpt>
      <trkpt lat="51.938761" lon="6.771201">
        <ele>41.435051</ele>
        <time>2020-10-03T18:07:38.241Z</time>
      </trkpt>
      <trkpt lat="51.938020" lon="6.771510">
        <ele>41.814830</ele>
        <time>2020-10-03T18:07:57.089Z</time>
      </trkpt>
      <trkpt lat="51.936245" lon="6.772184">
        <ele>42.869216</ele>
        <time>2020-10-03T18:08:44.318Z</time>
      </trkpt>
      <trkpt lat="51.936029" lon="6.772246">
        <ele>43.017599</ele>
        <time>2020-10-03T18:08:50.105Z</time>
      </trkpt>
      <trkpt lat="51.935820" lon="6.772260">
        <ele>43.159096</ele>
        <time>2020-10-03T18:08:55.641Z</time>
      </trkpt>
      <trkpt lat="51.935532" lon="6.772197">
        <ele>43.355676</ele>
        <time>2020-10-03T18:09:03.353Z</time>
      </trkpt>
      <trkpt lat="51.934923" lon="6.771908">
        <ele>43.629156</ele>
        <time>2020-10-03T18:09:19.607Z</time>
      </trkpt>
      <trkpt lat="51.934660" lon="6.771840">
        <ele>43.701637</ele>
        <time>2020-10-03T18:09:26.159Z</time>
      </trkpt>
      <trkpt lat="51.934047" lon="6.771817">
        <ele>43.868513</ele>
        <time>2020-10-03T18:09:41.013Z</time>
      </trkpt>
      <trkpt lat="51.933834" lon="6.771894">
        <ele>43.927905</ele>
        <time>2020-10-03T18:09:46.196Z</time>
      </trkpt>
      <trkpt lat="51.932876" lon="6.772790">
        <ele>43.955158</ele>
        <time>2020-10-03T18:10:11.185Z</time>
      </trkpt>
      <trkpt lat="51.932199" lon="6.773258">
        <ele>43.900519</ele>
        <time>2020-10-03T18:10:27.841Z</time>
      </trkpt>
      <trkpt lat="51.932062" lon="6.773299">
        <ele>43.890176</ele>
        <time>2020-10-03T18:10:30.825Z</time>
      </trkpt>
      <trkpt lat="51.932082" lon="6.773343">
        <ele>43.887673</ele>
        <time>2020-10-03T18:10:31.706Z</time>
      </trkpt>
      <trkpt lat="51.932136" lon="6.773463">
        <ele>43.880872</ele>
        <time>2020-10-03T18:10:33.947Z</time>
      </trkpt>
      <trkpt lat="51.932176" lon="6.773596">
        <ele>43.915151</ele>
        <time>2020-10-03T18:10:37.483Z</time>
      </trkpt>
      <trkpt lat="51.932392" lon="6.774338">
        <ele>44.126839</ele>
        <time>2020-10-03T18:10:49.451Z</time>
      </trkpt>
      <trkpt lat="51.932280" lon="6.775560">
        <ele>44.445562</ele>
        <time>2020-10-03T18:11:08.928Z</time>
      </trkpt>
      <trkpt lat="51.932210" lon="6.776070">
        <ele>44.580355</ele>
        <time>2020-10-03T18:11:17.469Z</time>
      </trkpt>
      <trkpt lat="51.931940" lon="6.777330">
        <ele>44.840413</ele>
        <time>2020-10-03T18:11:38.062Z</time>
      </trkpt>
      <trkpt lat="51.931580" lon="6.779330">
        <ele>45.195556</ele>
        <time>2020-10-03T18:12:08.802Z</time>
      </trkpt>
      <trkpt lat="51.931521" lon="6.781743">
        <ele>45.416006</ele>
        <time>2020-10-03T18:12:44.172Z</time>
      </trkpt>
      <trkpt lat="51.931167" lon="6.782700">
        <ele>45.671102</ele>
        <time>2020-10-03T18:13:00.721Z</time>
      </trkpt>
      <trkpt lat="51.930798" lon="6.784484">
        <ele>46.159448</ele>
        <time>2020-10-03T18:13:30.165Z</time>
      </trkpt>
      <trkpt lat="51.930897" lon="6.785510">
        <ele>46.499858</ele>
        <time>2020-10-03T18:13:45.911Z</time>
      </trkpt>
      <trkpt lat="51.930854" lon="6.785426">
        <ele>46.536661</ele>
        <time>2020-10-03T18:13:49.494Z</time>
      </trkpt>
      <trkpt lat="51.930897" lon="6.785510">
        <ele>46.573463</ele>
        <time>2020-10-03T18:13:51.522Z</time>
      </trkpt>
      <trkpt lat="51.930671" lon="6.784934">
        <ele>46.803608</ele>
        <time>2020-10-03T18:14:08.417Z</time>
      </trkpt>
      <trkpt lat="51.929396" lon="6.782474">
        <ele>47.549675</ele>
        <time>2020-10-03T18:15:26.681Z</time>
      </trkpt>
      <trkpt lat="51.927924" lon="6.779451">
        <ele>47.107614</ele>
        <time>2020-10-03T18:16:51.735Z</time>
      </trkpt>
      <trkpt lat="51.925104" lon="6.773658">
        <ele>45.753375</ele>
        <time>2020-10-03T18:19:35.530Z</time>
      </trkpt>
      <trkpt lat="51.925057" lon="6.773621">
        <ele>45.740000</ele>
        <time>2020-10-03T18:19:37.489Z</time>
      </trkpt>
      <trkpt lat="51.925030" lon="6.773600">
        <ele>45.732335</ele>
        <time>2020-10-03T18:19:38.635Z</time>
      </trkpt>
      <trkpt lat="51.922687" lon="6.768613">
        <ele>45.006528</ele>
        <time>2020-10-03T18:21:59.039Z</time>
      </trkpt>
      <trkpt lat="51.922628" lon="6.768487">
        <ele>44.993843</ele>
        <time>2020-10-03T18:22:02.629Z</time>
      </trkpt>
      <trkpt lat="51.922601" lon="6.768427">
        <ele>44.987888</ele>
        <time>2020-10-03T18:22:04.342Z</time>
      </trkpt>
      <trkpt lat="51.922501" lon="6.768372">
        <ele>44.974159</ele>
        <time>2020-10-03T18:22:08.327Z</time>
      </trkpt>
      <trkpt lat="51.922462" lon="6.768413">
        <ele>44.968116</ele>
        <time>2020-10-03T18:22:11.574Z</time>
      </trkpt>
      <trkpt lat="51.922501" lon="6.768372">
        <ele>44.962073</ele>
        <time>2020-10-03T18:22:14.821Z</time>
      </trkpt>
      <trkpt lat="51.922601" lon="6.768427">
        <ele>44.964319</ele>
        <time>2020-10-03T18:22:18.719Z</time>
      </trkpt>
      <trkpt lat="51.922628" lon="6.768487">
        <ele>44.979796</ele>
        <time>2020-10-03T18:22:20.425Z</time>
      </trkpt>
      <trkpt lat="51.922793" lon="6.768236">
        <ele>45.056243</ele>
        <time>2020-10-03T18:22:28.979Z</time>
      </trkpt>
      <trkpt lat="51.923913" lon="6.766757">
        <ele>45.544300</ele>
        <time>2020-10-03T18:23:25.263Z</time>
      </trkpt>
      <trkpt lat="51.924576" lon="6.765898">
        <ele>45.873753</ele>
        <time>2020-10-03T18:23:57.536Z</time>
      </trkpt>
      <trkpt lat="51.924480" lon="6.765833">
        <ele>45.914454</ele>
        <time>2020-10-03T18:24:00.073Z</time>
      </trkpt>
      <trkpt lat="51.924456" lon="6.765816">
        <ele>45.924700</ele>
        <time>2020-10-03T18:24:00.688Z</time>
      </trkpt>
      <trkpt lat="51.923573" lon="6.765137">
        <ele>46.290376</ele>
        <time>2020-10-03T18:24:25.619Z</time>
      </trkpt>
      <trkpt lat="51.923126" lon="6.764794">
        <ele>46.408607</ele>
        <time>2020-10-03T18:24:37.709Z</time>
      </trkpt>
      <trkpt lat="51.922235" lon="6.764202">
        <ele>46.638817</ele>
        <time>2020-10-03T18:25:01.102Z</time>
      </trkpt>
      <trkpt lat="51.919762" lon="6.762672">
        <ele>46.415074</ele>
        <time>2020-10-03T18:26:00.594Z</time>
      </trkpt>
      <trkpt lat="51.918861" lon="6.760830">
        <ele>46.468722</ele>
        <time>2020-10-03T18:26:34.633Z</time>
      </trkpt>
      <trkpt lat="51.918089" lon="6.759325">
        <ele>46.772038</ele>
        <time>2020-10-03T18:27:04.160Z</time>
      </trkpt>
      <trkpt lat="51.916805" lon="6.756584">
        <ele>47.785035</ele>
        <time>2020-10-03T18:27:57.029Z</time>
      </trkpt>
      <trkpt lat="51.914913" lon="6.752218">
        <ele>51.650023</ele>
        <time>2020-10-03T18:29:29.653Z</time>
      </trkpt>
      <trkpt lat="51.914783" lon="6.751925">
        <ele>51.919912</ele>
        <time>2020-10-03T18:29:35.889Z</time>
      </trkpt>
      <trkpt lat="51.912826" lon="6.747412">
        <ele>55.033070</ele>
        <time>2020-10-03T18:31:08.442Z</time>
      </trkpt>
      <trkpt lat="51.912068" lon="6.745625">
        <ele>55.172355</ele>
        <time>2020-10-03T18:31:40.044Z</time>
      </trkpt>
      <trkpt lat="51.911559" lon="6.744423">
        <ele>55.049082</ele>
        <time>2020-10-03T18:31:59.442Z</time>
      </trkpt>
      <trkpt lat="51.911529" lon="6.744351">
        <ele>55.026814</ele>
        <time>2020-10-03T18:32:00.601Z</time>
      </trkpt>
      <trkpt lat="51.910261" lon="6.741386">
        <ele>54.373969</ele>
        <time>2020-10-03T18:32:48.981Z</time>
      </trkpt>
      <trkpt lat="51.908010" lon="6.736068">
        <ele>55.048906</ele>
        <time>2020-10-03T18:34:23.278Z</time>
      </trkpt>
      <trkpt lat="51.907287" lon="6.734340">
        <ele>56.060503</ele>
        <time>2020-10-03T18:34:59.870Z</time>
      </trkpt>
      <trkpt lat="51.907297" lon="6.734208">
        <ele>56.143350</ele>
        <time>2020-10-03T18:35:02.578Z</time>
      </trkpt>
      <trkpt lat="51.907317" lon="6.734204">
        <ele>56.163698</ele>
        <time>2020-10-03T18:35:03.042Z</time>
      </trkpt>
      <trkpt lat="51.907297" lon="6.734208">
        <ele>56.184046</ele>
        <time>2020-10-03T18:35:05.597Z</time>
      </trkpt>
      <trkpt lat="51.906233" lon="6.734389">
        <ele>57.264318</ele>
        <time>2020-10-03T18:35:49.927Z</time>
      </trkpt>
      <trkpt lat="51.902329" lon="6.735196">
        <ele>56.768458</ele>
        <time>2020-10-03T18:38:12.762Z</time>
      </trkpt>
      <trkpt lat="51.902202" lon="6.735191">
        <ele>56.724519</ele>
        <time>2020-10-03T18:38:17.289Z</time>
      </trkpt>
      <trkpt lat="51.902183" lon="6.735149">
        <ele>56.713405</ele>
        <time>2020-10-03T18:38:18.484Z</time>
      </trkpt>
      <trkpt lat="51.902159" lon="6.735098">
        <ele>56.699717</ele>
        <time>2020-10-03T18:38:19.928Z</time>
      </trkpt>
      <trkpt lat="51.900967" lon="6.719945">
        <ele>53.569966</ele>
        <time>2020-10-03T18:43:57.808Z</time>
      </trkpt>
      <trkpt lat="51.900950" lon="6.719730">
        <ele>53.547723</ele>
        <time>2020-10-03T18:44:02.072Z</time>
      </trkpt>
      <trkpt lat="51.906228" lon="6.717975">
        <ele>53.827614</ele>
        <time>2020-10-03T18:46:15.360Z</time>
      </trkpt>
      <trkpt lat="51.906202" lon="6.717857">
        <ele>53.751807</ele>
        <time>2020-10-03T18:46:17.474Z</time>
      </trkpt>
      <trkpt lat="51.905716" lon="6.715616">
        <ele>51.761947</ele>
        <time>2020-10-03T18:47:02.454Z</time>
      </trkpt>
      <trkpt lat="51.905328" lon="6.713824">
        <ele>49.982047</ele>
        <time>2020-10-03T18:47:40.669Z</time>
      </trkpt>
      <trkpt lat="51.904058" lon="6.707970">
        <ele>51.618336</ele>
        <time>2020-10-03T18:50:12.473Z</time>
      </trkpt>
      <trkpt lat="51.904019" lon="6.707792">
        <ele>51.638413</ele>
        <time>2020-10-03T18:50:15.414Z</time>
      </trkpt>
      <trkpt lat="51.903991" lon="6.707679">
        <ele>51.651356</ele>
        <time>2020-10-03T18:50:17.326Z</time>
      </trkpt>
      <trkpt lat="51.904090" lon="6.707640">
        <ele>51.668908</ele>
        <time>2020-10-03T18:50:21.370Z</time>
      </trkpt>
      <trkpt lat="51.904100" lon="6.707639">
        <ele>51.670634</ele>
        <time>2020-10-03T18:50:21.791Z</time>
      </trkpt>
      <trkpt lat="51.904518" lon="6.707620">
        <ele>51.742672</ele>
        <time>2020-10-03T18:50:38.024Z</time>
      </trkpt>
      <trkpt lat="51.907740" lon="6.707730">
        <ele>50.614518</ele>
        <time>2020-10-03T18:52:33.673Z</time>
      </trkpt>
      <trkpt lat="51.908900" lon="6.707840">
        <ele>49.435334</ele>
        <time>2020-10-03T18:52:56.261Z</time>
      </trkpt>
      <trkpt lat="51.910150" lon="6.707980">
        <ele>47.582226</ele>
        <time>2020-10-03T18:53:20.026Z</time>
      </trkpt>
      <trkpt lat="51.910903" lon="6.708083">
        <ele>46.616705</ele>
        <time>2020-10-03T18:53:34.985Z</time>
      </trkpt>
      <trkpt lat="51.912377" lon="6.708263">
        <ele>45.261824</ele>
        <time>2020-10-03T18:54:04.870Z</time>
      </trkpt>
      <trkpt lat="51.912430" lon="6.708269">
        <ele>45.217588</ele>
        <time>2020-10-03T18:54:05.826Z</time>
      </trkpt>
      <trkpt lat="51.912065" lon="6.709240">
        <ele>45.580170</ele>
        <time>2020-10-03T18:54:22.264Z</time>
      </trkpt>
      <trkpt lat="51.912060" lon="6.709367">
        <ele>45.620749</ele>
        <time>2020-10-03T18:54:24.085Z</time>
      </trkpt>
      <trkpt lat="51.912322" lon="6.710448">
        <ele>45.991102</ele>
        <time>2020-10-03T18:54:42.339Z</time>
      </trkpt>
      <trkpt lat="51.912538" lon="6.711261">
        <ele>46.408405</ele>
        <time>2020-10-03T18:54:57.743Z</time>
      </trkpt>
      <trkpt lat="51.913398" lon="6.714731">
        <ele>48.172957</ele>
        <time>2020-10-03T18:55:58.548Z</time>
      </trkpt>
      <trkpt lat="51.913420" lon="6.714823">
        <ele>48.182126</ele>
        <time>2020-10-03T18:56:00.795Z</time>
      </trkpt>
      <trkpt lat="51.913910" lon="6.714690">
        <ele>48.256967</ele>
        <time>2020-10-03T18:56:10.860Z</time>
      </trkpt>
      <trkpt lat="51.915770" lon="6.713880">
        <ele>47.290549</ele>
        <time>2020-10-03T18:56:48.423Z</time>
      </trkpt>
      <trkpt lat="51.916000" lon="6.713860">
        <ele>47.124265</ele>
        <time>2020-10-03T18:56:53.098Z</time>
      </trkpt>
      <trkpt lat="51.917487" lon="6.714417">
        <ele>47.129328</ele>
        <time>2020-10-03T18:57:27.594Z</time>
      </trkpt>
      <trkpt lat="51.918012" lon="6.714805">
        <ele>47.158783</ele>
        <time>2020-10-03T18:57:41.325Z</time>
      </trkpt>
      <trkpt lat="51.918520" lon="6.715180">
        <ele>47.163398</ele>
        <time>2020-10-03T18:57:54.426Z</time>
      </trkpt>
      <trkpt lat="51.918880" lon="6.715390">
        <ele>47.166562</ele>
        <time>2020-10-03T18:58:02.952Z</time>
      </trkpt>
      <trkpt lat="51.919250" lon="6.715420">
        <ele>47.169625</ele>
        <time>2020-10-03T18:58:11.020Z</time>
      </trkpt>
      <trkpt lat="51.920856" lon="6.714996">
        <ele>46.947052</ele>
        <time>2020-10-03T18:58:45.108Z</time>
      </trkpt>
      <trkpt lat="51.921066" lon="6.714965">
        <ele>46.910976</ele>
        <time>2020-10-03T18:58:49.771Z</time>
      </trkpt>
      <trkpt lat="51.921305" lon="6.714990">
        <ele>46.870001</ele>
        <time>2020-10-03T18:58:55.389Z</time>
      </trkpt>
      <trkpt lat="51.921537" lon="6.715018">
        <ele>46.986015</ele>
        <time>2020-10-03T18:59:00.695Z</time>
      </trkpt>
      <trkpt lat="51.922305" lon="6.715102">
        <ele>47.453015</ele>
        <time>2020-10-03T18:59:19.884Z</time>
      </trkpt>
      <trkpt lat="51.922644" lon="6.715156">
        <ele>47.659674</ele>
        <time>2020-10-03T18:59:28.633Z</time>
      </trkpt>
      <trkpt lat="51.922686" lon="6.715170">
        <ele>47.685688</ele>
        <time>2020-10-03T18:59:30.024Z</time>
      </trkpt>
      <trkpt lat="51.925138" lon="6.716003">
        <ele>48.944578</ele>
        <time>2020-10-03T19:00:32.072Z</time>
      </trkpt>
      <trkpt lat="51.927076" lon="6.716683">
        <ele>48.122494</ele>
        <time>2020-10-03T19:01:13.130Z</time>
      </trkpt>
      <trkpt lat="51.927766" lon="6.716925">
        <ele>47.424094</ele>
        <time>2020-10-03T19:01:26.513Z</time>
      </trkpt>
      <trkpt lat="51.928434" lon="6.717176">
        <ele>46.747452</ele>
        <time>2020-10-03T19:01:39.511Z</time>
      </trkpt>
      <trkpt lat="51.928511" lon="6.717195">
        <ele>46.673853</ele>
        <time>2020-10-03T19:01:40.853Z</time>
      </trkpt>
      <trkpt lat="51.928574" lon="6.717165">
        <ele>46.611807</ele>
        <time>2020-10-03T19:01:42.097Z</time>
      </trkpt>
      <trkpt lat="51.928627" lon="6.717139">
        <ele>46.559483</ele>
        <time>2020-10-03T19:01:43.154Z</time>
      </trkpt>
      <trkpt lat="51.928748" lon="6.717063">
        <ele>46.436867</ele>
        <time>2020-10-03T19:01:45.694Z</time>
      </trkpt>
      <trkpt lat="51.928935" lon="6.716939">
        <ele>46.245959</ele>
        <time>2020-10-03T19:01:49.341Z</time>
      </trkpt>
      <trkpt lat="51.929322" lon="6.716509">
        <ele>45.802660</ele>
        <time>2020-10-03T19:01:58.173Z</time>
      </trkpt>
      <trkpt lat="51.929649" lon="6.715890">
        <ele>45.327713</ele>
        <time>2020-10-03T19:02:07.996Z</time>
      </trkpt>
      <trkpt lat="51.930020" lon="6.715134">
        <ele>45.473327</ele>
        <time>2020-10-03T19:02:20.781Z</time>
      </trkpt>
      <trkpt lat="51.929984" lon="6.714983">
        <ele>45.588073</ele>
        <time>2020-10-03T19:02:23.259Z</time>
      </trkpt>
      <trkpt lat="51.929959" lon="6.714891">
        <ele>45.659332</ele>
        <time>2020-10-03T19:02:24.955Z</time>
      </trkpt>
      <trkpt lat="51.929984" lon="6.714983">
        <ele>45.730590</ele>
        <time>2020-10-03T19:02:26.269Z</time>
      </trkpt>
      <trkpt lat="51.930538" lon="6.712667">
        <ele>47.455231</ele>
        <time>2020-10-03T19:03:34.380Z</time>
      </trkpt>
      <trkpt lat="51.930560" lon="6.712577">
        <ele>47.516559</ele>
        <time>2020-10-03T19:03:37.910Z</time>
      </trkpt>
      <trkpt lat="51.930990" lon="6.710732">
        <ele>48.765985</ele>
        <time>2020-10-03T19:04:27.971Z</time>
      </trkpt>
      <trkpt lat="51.931030" lon="6.710560">
        <ele>48.882430</ele>
        <time>2020-10-03T19:04:32.514Z</time>
      </trkpt>
      <trkpt lat="51.931006" lon="6.710416">
        <ele>48.976921</ele>
        <time>2020-10-03T19:04:36.978Z</time>
      </trkpt>
      <trkpt lat="51.931012" lon="6.710246">
        <ele>48.935883</ele>
        <time>2020-10-03T19:04:40.338Z</time>
      </trkpt>
      <trkpt lat="51.931116" lon="6.707257">
        <ele>47.548025</ele>
        <time>2020-10-03T19:05:42.376Z</time>
      </trkpt>
      <trkpt lat="51.931167" lon="6.704688">
        <ele>46.727024</ele>
        <time>2020-10-03T19:06:38.061Z</time>
      </trkpt>
      <trkpt lat="51.931218" lon="6.704284">
        <ele>46.856086</ele>
        <time>2020-10-03T19:06:47.845Z</time>
      </trkpt>
      <trkpt lat="51.931311" lon="6.703979">
        <ele>47.067886</ele>
        <time>2020-10-03T19:06:56.003Z</time>
      </trkpt>
      <trkpt lat="51.931227" lon="6.704151">
        <ele>47.204466</ele>
        <time>2020-10-03T19:07:01.581Z</time>
      </trkpt>
      <trkpt lat="51.931202" lon="6.704172">
        <ele>47.232888</ele>
        <time>2020-10-03T19:07:02.809Z</time>
      </trkpt>
      <trkpt lat="51.930804" lon="6.704507">
        <ele>47.685568</ele>
        <time>2020-10-03T19:07:21.295Z</time>
      </trkpt>
      <trkpt lat="51.930360" lon="6.704679">
        <ele>48.146405</ele>
        <time>2020-10-03T19:07:40.550Z</time>
      </trkpt>
      <trkpt lat="51.930200" lon="6.704687">
        <ele>48.308004</ele>
        <time>2020-10-03T19:07:47.681Z</time>
      </trkpt>
      <trkpt lat="51.930152" lon="6.704690">
        <ele>48.356497</ele>
        <time>2020-10-03T19:07:50.084Z</time>
      </trkpt>
      <trkpt lat="51.929881" lon="6.704641">
        <ele>48.675343</ele>
        <time>2020-10-03T19:08:01.886Z</time>
      </trkpt>
      <trkpt lat="51.928475" lon="6.704294">
        <ele>50.584017</ele>
        <time>2020-10-03T19:09:04.125Z</time>
      </trkpt>
      <trkpt lat="51.928348" lon="6.704262">
        <ele>50.756504</ele>
        <time>2020-10-03T19:09:09.522Z</time>
      </trkpt>
      <trkpt lat="51.925886" lon="6.703641">
        <ele>49.952937</ele>
        <time>2020-10-03T19:10:40.157Z</time>
      </trkpt>
      <trkpt lat="51.925859" lon="6.703520">
        <ele>49.833468</ele>
        <time>2020-10-03T19:10:42.646Z</time>
      </trkpt>
      <trkpt lat="51.925856" lon="6.703505">
        <ele>49.818828</ele>
        <time>2020-10-03T19:10:42.895Z</time>
      </trkpt>
      <trkpt lat="51.924859" lon="6.700097">
        <ele>46.247447</ele>
        <time>2020-10-03T19:11:55.843Z</time>
      </trkpt>
      <trkpt lat="51.923677" lon="6.696168">
        <ele>44.261164</ele>
        <time>2020-10-03T19:13:30.801Z</time>
      </trkpt>
      <trkpt lat="51.921725" lon="6.689614">
        <ele>43.000793</ele>
        <time>2020-10-03T19:15:40.321Z</time>
      </trkpt>
      <trkpt lat="51.921686" lon="6.689542">
        <ele>42.964267</ele>
        <time>2020-10-03T19:15:41.804Z</time>
      </trkpt>
      <trkpt lat="51.921674" lon="6.689485">
        <ele>42.941310</ele>
        <time>2020-10-03T19:15:42.696Z</time>
      </trkpt>
      <trkpt lat="51.921686" lon="6.689542">
        <ele>42.918352</ele>
        <time>2020-10-03T19:15:43.954Z</time>
      </trkpt>
      <trkpt lat="51.921661" lon="6.689550">
        <ele>42.902603</ele>
        <time>2020-10-03T19:15:44.474Z</time>
      </trkpt>
      <trkpt lat="51.921609" lon="6.689566">
        <ele>42.869892</ele>
        <time>2020-10-03T19:15:45.558Z</time>
      </trkpt>
      <trkpt lat="51.921552" lon="6.689380">
        <ele>42.790725</ele>
        <time>2020-10-03T19:15:47.846Z</time>
      </trkpt>
      <trkpt lat="51.920923" lon="6.687392">
        <ele>41.237029</ele>
        <time>2020-10-03T19:16:14.275Z</time>
      </trkpt>
      <trkpt lat="51.920755" lon="6.687129">
        <ele>40.943928</ele>
        <time>2020-10-03T19:16:18.892Z</time>
      </trkpt>
      <trkpt lat="51.920230" lon="6.686588">
        <ele>40.305272</ele>
        <time>2020-10-03T19:16:31.902Z</time>
      </trkpt>
      <trkpt lat="51.920137" lon="6.686510">
        <ele>40.267482</ele>
        <time>2020-10-03T19:16:34.076Z</time>
      </trkpt>
      <trkpt lat="51.920158" lon="6.686423">
        <ele>40.246685</ele>
        <time>2020-10-03T19:16:35.335Z</time>
      </trkpt>
      <trkpt lat="51.920314" lon="6.685652">
        <ele>40.066061</ele>
        <time>2020-10-03T19:16:45.850Z</time>
      </trkpt>
      <trkpt lat="51.920158" lon="6.686423">
        <ele>39.885437</ele>
        <time>2020-10-03T19:16:56.528Z</time>
      </trkpt>
      <trkpt lat="51.918717" lon="6.685166">
        <ele>39.578045</ele>
        <time>2020-10-03T19:17:32.008Z</time>
      </trkpt>
      <trkpt lat="51.918241" lon="6.684749">
        <ele>39.514876</ele>
        <time>2020-10-03T19:17:43.950Z</time>
      </trkpt>
      <trkpt lat="51.917604" lon="6.684197">
        <ele>39.525487</ele>
        <time>2020-10-03T19:17:59.975Z</time>
      </trkpt>
      <trkpt lat="51.918241" lon="6.684749">
        <ele>39.550963</ele>
        <time>2020-10-03T19:18:16.121Z</time>
      </trkpt>
      <trkpt lat="51.918717" lon="6.685166">
        <ele>39.597917</ele>
        <time>2020-10-03T19:18:28.257Z</time>
      </trkpt>
      <trkpt lat="51.920158" lon="6.686423">
        <ele>40.167006</ele>
        <time>2020-10-03T19:19:06.999Z</time>
      </trkpt>
      <trkpt lat="51.920314" lon="6.685652">
        <ele>40.460347</ele>
        <time>2020-10-03T19:19:19.210Z</time>
      </trkpt>
      <trkpt lat="51.921198" lon="6.681290">
        <ele>42.257754</ele>
        <time>2020-10-03T19:20:29.884Z</time>
      </trkpt>
      <trkpt lat="51.921258" lon="6.680994">
        <ele>42.381128</ele>
        <time>2020-10-03T19:20:34.937Z</time>
      </trkpt>
      <trkpt lat="51.921498" lon="6.679961">
        <ele>42.667407</ele>
        <time>2020-10-03T19:20:51.605Z</time>
      </trkpt>
      <trkpt lat="51.921723" lon="6.679143">
        <ele>42.866275</ele>
        <time>2020-10-03T19:21:04.815Z</time>
      </trkpt>
      <trkpt lat="51.922177" lon="6.677779">
        <ele>43.132460</ele>
        <time>2020-10-03T19:21:26.911Z</time>
      </trkpt>
      <trkpt lat="51.923178" lon="6.674773">
        <ele>43.085477</ele>
        <time>2020-10-03T19:22:13.862Z</time>
      </trkpt>
      <trkpt lat="51.923200" lon="6.674540">
        <ele>43.056320</ele>
        <time>2020-10-03T19:22:16.989Z</time>
      </trkpt>
      <trkpt lat="51.923150" lon="6.674050">
        <ele>42.994884</ele>
        <time>2020-10-03T19:22:23.511Z</time>
      </trkpt>
      <trkpt lat="51.922535" lon="6.669781">
        <ele>42.405893</ele>
        <time>2020-10-03T19:23:20.561Z</time>
      </trkpt>
      <trkpt lat="51.922503" lon="6.669684">
        <ele>42.427509</ele>
        <time>2020-10-03T19:23:21.926Z</time>
      </trkpt>
      <trkpt lat="51.922568" lon="6.669686">
        <ele>42.448222</ele>
        <time>2020-10-03T19:23:23.645Z</time>
      </trkpt>
      <trkpt lat="51.922608" lon="6.669687">
        <ele>42.460969</ele>
        <time>2020-10-03T19:23:24.742Z</time>
      </trkpt>
      <trkpt lat="51.922868" lon="6.669875">
        <ele>42.551673</ele>
        <time>2020-10-03T19:23:31.525Z</time>
      </trkpt>
      <trkpt lat="51.923765" lon="6.670599">
        <ele>42.870922</ele>
        <time>2020-10-03T19:23:57.208Z</time>
      </trkpt>
      <trkpt lat="51.924076" lon="6.670773">
        <ele>42.910665</ele>
        <time>2020-10-03T19:24:05.714Z</time>
      </trkpt>
      <trkpt lat="51.926681" lon="6.670670">
        <ele>41.785695</ele>
        <time>2020-10-03T19:25:01.689Z</time>
      </trkpt>
      <trkpt lat="51.927003" lon="6.670552">
        <ele>41.579429</ele>
        <time>2020-10-03T19:25:08.434Z</time>
      </trkpt>
      <trkpt lat="51.927238" lon="6.670341">
        <ele>41.411591</ele>
        <time>2020-10-03T19:25:13.962Z</time>
      </trkpt>
      <trkpt lat="51.927363" lon="6.670191">
        <ele>41.314430</ele>
        <time>2020-10-03T19:25:17.116Z</time>
      </trkpt>
      <trkpt lat="51.930535" lon="6.671316">
        <ele>39.726879</ele>
        <time>2020-10-03T19:26:27.571Z</time>
      </trkpt>
      <trkpt lat="51.931796" lon="6.671810">
        <ele>38.643495</ele>
        <time>2020-10-03T19:26:54.877Z</time>
      </trkpt>
      <trkpt lat="51.932712" lon="6.672292">
        <ele>37.637707</ele>
        <time>2020-10-03T19:27:14.084Z</time>
      </trkpt>
      <trkpt lat="51.932740" lon="6.672233">
        <ele>37.584078</ele>
        <time>2020-10-03T19:27:15.636Z</time>
      </trkpt>
      <trkpt lat="51.933180" lon="6.671300">
        <ele>36.627090</ele>
        <time>2020-10-03T19:27:37.922Z</time>
      </trkpt>
      <trkpt lat="51.933297" lon="6.671065">
        <ele>36.381007</ele>
        <time>2020-10-03T19:27:43.756Z</time>
      </trkpt>
      <trkpt lat="51.933953" lon="6.669751">
        <ele>35.337895</ele>
        <time>2020-10-03T19:28:20.081Z</time>
      </trkpt>
      <trkpt lat="51.934081" lon="6.669494">
        <ele>35.458304</ele>
        <time>2020-10-03T19:28:27.563Z</time>
      </trkpt>
      <trkpt lat="51.933953" lon="6.669751">
        <ele>35.578713</ele>
        <time>2020-10-03T19:28:35.188Z</time>
      </trkpt>
      <trkpt lat="51.933297" lon="6.671065">
        <ele>36.194925</ele>
        <time>2020-10-03T19:29:16.601Z</time>
      </trkpt>
      <trkpt lat="51.933180" lon="6.671300">
        <ele>36.314386</ele>
        <time>2020-10-03T19:29:25.083Z</time>
      </trkpt>
      <trkpt lat="51.932712" lon="6.672292">
        <ele>37.357858</ele>
        <time>2020-10-03T19:30:00.689Z</time>
      </trkpt>
      <trkpt lat="51.931796" lon="6.671810">
        <ele>38.662620</ele>
        <time>2020-10-03T19:30:26.423Z</time>
      </trkpt>
      <trkpt lat="51.931531" lon="6.673226">
        <ele>39.041361</ele>
        <time>2020-10-03T19:30:50.915Z</time>
      </trkpt>
      <trkpt lat="51.931234" lon="6.674676">
        <ele>39.375987</ele>
        <time>2020-10-03T19:31:12.488Z</time>
      </trkpt>
      <trkpt lat="51.931249" lon="6.675669">
        <ele>39.230261</ele>
        <time>2020-10-03T19:31:26.374Z</time>
      </trkpt>
      <trkpt lat="51.931251" lon="6.675823">
        <ele>39.207663</ele>
        <time>2020-10-03T19:31:28.169Z</time>
      </trkpt>
      <trkpt lat="51.931029" lon="6.676920">
        <ele>39.038276</ele>
        <time>2020-10-03T19:31:44.401Z</time>
      </trkpt>
      <trkpt lat="51.930695" lon="6.678439">
        <ele>38.813042</ele>
        <time>2020-10-03T19:32:06.240Z</time>
      </trkpt>
      <trkpt lat="51.930687" lon="6.678476">
        <ele>38.807734</ele>
        <time>2020-10-03T19:32:07.053Z</time>
      </trkpt>
      <trkpt lat="51.930550" lon="6.679230">
        <ele>38.701326</ele>
        <time>2020-10-03T19:32:17.861Z</time>
      </trkpt>
      <trkpt lat="51.930489" lon="6.679969">
        <ele>38.600395</ele>
        <time>2020-10-03T19:32:27.877Z</time>
      </trkpt>
      <trkpt lat="51.930570" lon="6.680930">
        <ele>38.572377</ele>
        <time>2020-10-03T19:32:41.745Z</time>
      </trkpt>
      <trkpt lat="51.930660" lon="6.681310">
        <ele>38.584455</ele>
        <time>2020-10-03T19:32:47.728Z</time>
      </trkpt>
      <trkpt lat="51.930804" lon="6.681683">
        <ele>38.597511</ele>
        <time>2020-10-03T19:32:53.857Z</time>
      </trkpt>
      <trkpt lat="51.931201" lon="6.682969">
        <ele>38.640180</ele>
        <time>2020-10-03T19:33:15.032Z</time>
      </trkpt>
      <trkpt lat="51.931647" lon="6.683970">
        <ele>39.095425</ele>
        <time>2020-10-03T19:33:33.634Z</time>
      </trkpt>
      <trkpt lat="51.931932" lon="6.684532">
        <ele>39.364829</ele>
        <time>2020-10-03T19:33:46.346Z</time>
      </trkpt>
      <trkpt lat="51.932834" lon="6.685861">
        <ele>39.556527</ele>
        <time>2020-10-03T19:34:17.434Z</time>
      </trkpt>
      <trkpt lat="51.932901" lon="6.685960">
        <ele>39.532829</ele>
        <time>2020-10-03T19:34:19.909Z</time>
      </trkpt>
      <trkpt lat="51.932951" lon="6.686151">
        <ele>39.499378</ele>
        <time>2020-10-03T19:34:22.881Z</time>
      </trkpt>
      <trkpt lat="51.933274" lon="6.686088">
        <ele>39.414321</ele>
        <time>2020-10-03T19:34:29.870Z</time>
      </trkpt>
      <trkpt lat="51.934188" lon="6.685885">
        <ele>38.788200</ele>
        <time>2020-10-03T19:34:48.206Z</time>
      </trkpt>
      <trkpt lat="51.934472" lon="6.685910">
        <ele>38.341914</ele>
        <time>2020-10-03T19:34:53.800Z</time>
      </trkpt>
      <trkpt lat="51.935018" lon="6.686309">
        <ele>37.402227</ele>
        <time>2020-10-03T19:35:04.526Z</time>
      </trkpt>
      <trkpt lat="51.935087" lon="6.686178">
        <ele>37.235541</ele>
        <time>2020-10-03T19:35:08.449Z</time>
      </trkpt>
      <trkpt lat="51.935018" lon="6.686309">
        <ele>37.068855</ele>
        <time>2020-10-03T19:35:11.580Z</time>
      </trkpt>
      <trkpt lat="51.934736" lon="6.687783">
        <ele>36.270336</ele>
        <time>2020-10-03T19:35:30.435Z</time>
      </trkpt>
      <trkpt lat="51.934503" lon="6.689299">
        <ele>35.991001</ele>
        <time>2020-10-03T19:35:51.826Z</time>
      </trkpt>
      <trkpt lat="51.934077" lon="6.692187">
        <ele>37.564597</ele>
        <time>2020-10-03T19:36:43.271Z</time>
      </trkpt>
      <trkpt lat="51.934049" lon="6.692381">
        <ele>37.697011</ele>
        <time>2020-10-03T19:36:47.398Z</time>
      </trkpt>
      <trkpt lat="51.935860" lon="6.693589">
        <ele>39.218649</ele>
        <time>2020-10-03T19:37:38.033Z</time>
      </trkpt>
      <trkpt lat="51.936521" lon="6.694043">
        <ele>39.940138</ele>
        <time>2020-10-03T19:37:56.469Z</time>
      </trkpt>
      <trkpt lat="51.937359" lon="6.695388">
        <ele>41.125160</ele>
        <time>2020-10-03T19:38:29.970Z</time>
      </trkpt>
      <trkpt lat="51.937983" lon="6.696402">
        <ele>42.013506</ele>
        <time>2020-10-03T19:38:54.023Z</time>
      </trkpt>
      <trkpt lat="51.938642" lon="6.697479">
        <ele>42.954607</ele>
        <time>2020-10-03T19:39:19.125Z</time>
      </trkpt>
      <trkpt lat="51.939643" lon="6.699084">
        <ele>44.372603</ele>
        <time>2020-10-03T19:39:57.658Z</time>
      </trkpt>
      <trkpt lat="51.940199" lon="6.699982">
        <ele>44.760418</ele>
        <time>2020-10-03T19:40:19.093Z</time>
      </trkpt>
      <trkpt lat="51.940202" lon="6.699601">
        <ele>44.819953</ele>
        <time>2020-10-03T19:40:24.836Z</time>
      </trkpt>
      <trkpt lat="51.940238" lon="6.695789">
        <ele>44.580215</ele>
        <time>2020-10-03T19:41:17.546Z</time>
      </trkpt>
      <trkpt lat="51.940295" lon="6.693999">
        <ele>43.344482</ele>
        <time>2020-10-03T19:41:40.675Z</time>
      </trkpt>
      <trkpt lat="51.940273" lon="6.691451">
        <ele>40.130558</ele>
        <time>2020-10-03T19:42:09.405Z</time>
      </trkpt>
      <trkpt lat="51.940248" lon="6.688174">
        <ele>34.533138</ele>
        <time>2020-10-03T19:42:43.582Z</time>
      </trkpt>
      <trkpt lat="51.940246" lon="6.688009">
        <ele>34.329972</ele>
        <time>2020-10-03T19:42:45.391Z</time>
      </trkpt>
      <trkpt lat="51.940244" lon="6.687927">
        <ele>34.228945</ele>
        <time>2020-10-03T19:42:46.740Z</time>
      </trkpt>
      <trkpt lat="51.940246" lon="6.688009">
        <ele>34.127918</ele>
        <time>2020-10-03T19:42:47.538Z</time>
      </trkpt>
      <trkpt lat="51.940281" lon="6.688027">
        <ele>34.054597</ele>
        <time>2020-10-03T19:42:48.461Z</time>
      </trkpt>
      <trkpt lat="51.940847" lon="6.688732">
        <ele>32.629559</ele>
        <time>2020-10-03T19:43:06.362Z</time>
      </trkpt>
      <trkpt lat="51.941041" lon="6.688867">
        <ele>32.208013</ele>
        <time>2020-10-03T19:43:11.950Z</time>
      </trkpt>
      <trkpt lat="51.941655" lon="6.689187">
        <ele>32.606643</ele>
        <time>2020-10-03T19:43:32.180Z</time>
      </trkpt>
      <trkpt lat="51.941859" lon="6.689293">
        <ele>32.750893</ele>
        <time>2020-10-03T19:43:39.312Z</time>
      </trkpt>
      <trkpt lat="51.942393" lon="6.689608">
        <ele>33.133527</ele>
        <time>2020-10-03T19:43:58.212Z</time>
      </trkpt>
      <trkpt lat="51.942508" lon="6.689676">
        <ele>33.215953</ele>
        <time>2020-10-03T19:44:02.440Z</time>
      </trkpt>
      <trkpt lat="51.942585" lon="6.689718">
        <ele>33.270657</ele>
        <time>2020-10-03T19:44:05.274Z</time>
      </trkpt>
      <trkpt lat="51.942636" lon="6.689710">
        <ele>33.305161</ele>
        <time>2020-10-03T19:44:07.001Z</time>
      </trkpt>
      <trkpt lat="51.942684" lon="6.689632">
        <ele>33.350913</ele>
        <time>2020-10-03T19:44:09.150Z</time>
      </trkpt>
      <trkpt lat="51.942745" lon="6.689643">
        <ele>33.392243</ele>
        <time>2020-10-03T19:44:11.259Z</time>
      </trkpt>
      <trkpt lat="51.942876" lon="6.689632">
        <ele>33.558312</ele>
        <time>2020-10-03T19:44:15.851Z</time>
      </trkpt>
      <trkpt lat="51.942902" lon="6.689579">
        <ele>33.611262</ele>
        <time>2020-10-03T19:44:17.075Z</time>
      </trkpt>
      <trkpt lat="51.944715" lon="6.687831">
        <ele>36.218892</ele>
        <time>2020-10-03T19:45:14.682Z</time>
      </trkpt>
      <trkpt lat="51.945663" lon="6.687346">
        <ele>37.341701</ele>
        <time>2020-10-03T19:45:41.471Z</time>
      </trkpt>
      <trkpt lat="51.946433" lon="6.687064">
        <ele>37.979219</ele>
        <time>2020-10-03T19:46:02.326Z</time>
      </trkpt>
      <trkpt lat="51.946450" lon="6.687058">
        <ele>37.989415</ele>
        <time>2020-10-03T19:46:03.102Z</time>
      </trkpt>
      <trkpt lat="51.949575" lon="6.691119">
        <ele>39.258933</ele>
        <time>2020-10-03T19:47:37.698Z</time>
      </trkpt>
      <trkpt lat="51.949981" lon="6.691648">
        <ele>39.183425</ele>
        <time>2020-10-03T19:47:48.462Z</time>
      </trkpt>
      <trkpt lat="51.950501" lon="6.692325">
        <ele>39.069016</ele>
        <time>2020-10-03T19:48:01.770Z</time>
      </trkpt>
      <trkpt lat="51.950985" lon="6.692955">
        <ele>38.939805</ele>
        <time>2020-10-03T19:48:13.931Z</time>
      </trkpt>
      <trkpt lat="51.951803" lon="6.694008">
        <ele>39.030967</ele>
        <time>2020-10-03T19:48:37.508Z</time>
      </trkpt>
      <trkpt lat="51.951825" lon="6.693950">
        <ele>39.110675</ele>
        <time>2020-10-03T19:48:39.336Z</time>
      </trkpt>
      <trkpt lat="51.951847" lon="6.693776">
        <ele>39.318565</ele>
        <time>2020-10-03T19:48:44.109Z</time>
      </trkpt>
      <trkpt lat="51.951841" lon="6.693738">
        <ele>39.364476</ele>
        <time>2020-10-03T19:48:45.205Z</time>
      </trkpt>
      <trkpt lat="51.951832" lon="6.693715">
        <ele>39.396362</ele>
        <time>2020-10-03T19:48:46.029Z</time>
      </trkpt>
      <trkpt lat="51.951841" lon="6.693738">
        <ele>39.428249</ele>
        <time>2020-10-03T19:48:46.671Z</time>
      </trkpt>
      <trkpt lat="51.951847" lon="6.693776">
        <ele>39.474160</ele>
        <time>2020-10-03T19:48:47.687Z</time>
      </trkpt>
      <trkpt lat="51.951825" lon="6.693950">
        <ele>39.682049</ele>
        <time>2020-10-03T19:48:52.501Z</time>
      </trkpt>
      <trkpt lat="51.951803" lon="6.694008">
        <ele>39.761758</ele>
        <time>2020-10-03T19:48:54.407Z</time>
      </trkpt>
      <trkpt lat="51.952579" lon="6.695019">
        <ele>41.651638</ele>
        <time>2020-10-03T19:49:26.231Z</time>
      </trkpt>
      <trkpt lat="51.952779" lon="6.695280">
        <ele>42.139035</ele>
        <time>2020-10-03T19:49:34.873Z</time>
      </trkpt>
      <trkpt lat="51.952959" lon="6.695515">
        <ele>42.284625</ele>
        <time>2020-10-03T19:49:42.284Z</time>
      </trkpt>
      <trkpt lat="51.953233" lon="6.695865">
        <ele>42.472557</ele>
        <time>2020-10-03T19:49:52.998Z</time>
      </trkpt>
      <trkpt lat="51.953988" lon="6.696841">
        <ele>42.992785</ele>
        <time>2020-10-03T19:50:16.843Z</time>
      </trkpt>
      <trkpt lat="51.955447" lon="6.698743">
        <ele>39.346157</ele>
        <time>2020-10-03T19:50:48.453Z</time>
      </trkpt>
      <trkpt lat="51.955596" lon="6.698937">
        <ele>38.894142</ele>
        <time>2020-10-03T19:50:51.650Z</time>
      </trkpt>
      <trkpt lat="51.955633" lon="6.698975">
        <ele>38.834147</ele>
        <time>2020-10-03T19:50:52.371Z</time>
      </trkpt>
      <trkpt lat="51.956331" lon="6.699670">
        <ele>37.820549</ele>
        <time>2020-10-03T19:51:06.801Z</time>
      </trkpt>
      <trkpt lat="51.956893" lon="6.700226">
        <ele>37.005872</ele>
        <time>2020-10-03T19:51:19.901Z</time>
      </trkpt>
      <trkpt lat="51.957463" lon="6.700787">
        <ele>36.808154</ele>
        <time>2020-10-03T19:51:35.128Z</time>
      </trkpt>
      <trkpt lat="51.957574" lon="6.700894">
        <ele>36.859409</ele>
        <time>2020-10-03T19:51:38.217Z</time>
      </trkpt>
      <trkpt lat="51.958701" lon="6.702003">
        <ele>37.370886</ele>
        <time>2020-10-03T19:52:11.125Z</time>
      </trkpt>
      <trkpt lat="51.958916" lon="6.702227">
        <ele>37.379246</ele>
        <time>2020-10-03T19:52:16.997Z</time>
      </trkpt>
      <trkpt lat="51.959072" lon="6.702389">
        <ele>37.385307</ele>
        <time>2020-10-03T19:52:21.182Z</time>
      </trkpt>
      <trkpt lat="51.961056" lon="6.704345">
        <ele>37.387556</ele>
        <time>2020-10-03T19:53:11.933Z</time>
      </trkpt>
      <trkpt lat="51.962305" lon="6.705571">
        <ele>37.401352</ele>
        <time>2020-10-03T19:53:44.830Z</time>
      </trkpt>
      <trkpt lat="51.962636" lon="6.705822">
        <ele>37.427471</ele>
        <time>2020-10-03T19:53:52.985Z</time>
      </trkpt>
      <trkpt lat="51.962483" lon="6.707010">
        <ele>37.480935</ele>
        <time>2020-10-03T19:54:10.416Z</time>
      </trkpt>
      <trkpt lat="51.962346" lon="6.707906">
        <ele>37.535008</ele>
        <time>2020-10-03T19:54:23.929Z</time>
      </trkpt>
      <trkpt lat="51.962177" lon="6.708379">
        <ele>37.567454</ele>
        <time>2020-10-03T19:54:31.858Z</time>
      </trkpt>
      <trkpt lat="51.962175" lon="6.708505">
        <ele>37.574934</ele>
        <time>2020-10-03T19:54:33.683Z</time>
      </trkpt>
      <trkpt lat="51.962244" lon="6.708650">
        <ele>37.585806</ele>
        <time>2020-10-03T19:54:36.305Z</time>
      </trkpt>
      <trkpt lat="51.962280" lon="6.708692">
        <ele>37.590076</ele>
        <time>2020-10-03T19:54:37.354Z</time>
      </trkpt>
      <trkpt lat="51.962411" lon="6.708755">
        <ele>37.603234</ele>
        <time>2020-10-03T19:54:40.582Z</time>
      </trkpt>
      <trkpt lat="51.962472" lon="6.708520">
        <ele>37.618367</ele>
        <time>2020-10-03T19:54:44.287Z</time>
      </trkpt>
      <trkpt lat="51.962516" lon="6.708290">
        <ele>37.632658</ele>
        <time>2020-10-03T19:54:47.791Z</time>
      </trkpt>
      <trkpt lat="51.963149" lon="6.706458">
        <ele>37.644826</ele>
        <time>2020-10-03T19:55:18.653Z</time>
      </trkpt>
      <trkpt lat="51.963189" lon="6.706447">
        <ele>37.644386</ele>
        <time>2020-10-03T19:55:19.562Z</time>
      </trkpt>
      <trkpt lat="51.963760" lon="6.707024">
        <ele>37.637095</ele>
        <time>2020-10-03T19:55:34.776Z</time>
      </trkpt>
      <trkpt lat="51.964010" lon="6.707164">
        <ele>37.586958</ele>
        <time>2020-10-03T19:55:40.556Z</time>
      </trkpt>
      <trkpt lat="51.964147" lon="6.707219">
        <ele>37.556262</ele>
        <time>2020-10-03T19:55:43.604Z</time>
      </trkpt>
      <trkpt lat="51.964255" lon="6.707227">
        <ele>37.532747</ele>
        <time>2020-10-03T19:55:46.015Z</time>
      </trkpt>
      <trkpt lat="51.964615" lon="6.707227">
        <ele>37.454447</ele>
        <time>2020-10-03T19:55:53.942Z</time>
      </trkpt>
      <trkpt lat="51.965076" lon="6.708551">
        <ele>37.250642</ele>
        <time>2020-10-03T19:56:14.897Z</time>
      </trkpt>
      <trkpt lat="51.965958" lon="6.710927">
        <ele>37.231161</ele>
        <time>2020-10-03T19:56:54.618Z</time>
      </trkpt>
      <trkpt lat="51.965989" lon="6.711013">
        <ele>37.230639</ele>
        <time>2020-10-03T19:56:56.136Z</time>
      </trkpt>
      <trkpt lat="51.966399" lon="6.712158">
        <ele>37.234649</ele>
        <time>2020-10-03T19:57:15.383Z</time>
      </trkpt>
      <trkpt lat="51.966842" lon="6.713374">
        <ele>37.239718</ele>
        <time>2020-10-03T19:57:40.873Z</time>
      </trkpt>
      <trkpt lat="51.966880" lon="6.713450">
        <ele>37.240070</ele>
        <time>2020-10-03T19:57:42.625Z</time>
      </trkpt>
      <trkpt lat="51.967012" lon="6.713710">
        <ele>37.227503</ele>
        <time>2020-10-03T19:57:47.111Z</time>
      </trkpt>
      <trkpt lat="51.967066" lon="6.713797">
        <ele>37.217845</ele>
        <time>2020-10-03T19:57:48.869Z</time>
      </trkpt>
      <trkpt lat="51.967458" lon="6.713197">
        <ele>37.149449</ele>
        <time>2020-10-03T19:58:00.610Z</time>
      </trkpt>
      <trkpt lat="51.967474" lon="6.713230">
        <ele>37.146165</ele>
        <time>2020-10-03T19:58:01.133Z</time>
      </trkpt>
      <trkpt lat="51.967807" lon="6.713870">
        <ele>37.080652</ele>
        <time>2020-10-03T19:58:12.385Z</time>
      </trkpt>
      <trkpt lat="51.968017" lon="6.714336">
        <ele>37.035499</ele>
        <time>2020-10-03T19:58:20.024Z</time>
      </trkpt>
      <trkpt lat="51.968068" lon="6.714459">
        <ele>37.023904</ele>
        <time>2020-10-03T19:58:22.189Z</time>
      </trkpt>
      <trkpt lat="51.968244" lon="6.714774">
        <ele>37.006090</ele>
        <time>2020-10-03T19:58:27.850Z</time>
      </trkpt>
      <trkpt lat="51.968271" lon="6.714818">
        <ele>37.004687</ele>
        <time>2020-10-03T19:58:28.784Z</time>
      </trkpt>
      <trkpt lat="51.968300" lon="6.714840">
        <ele>37.003514</ele>
        <time>2020-10-03T19:58:29.498Z</time>
      </trkpt>
      <trkpt lat="51.968357" lon="6.714867">
        <ele>37.001337</ele>
        <time>2020-10-03T19:58:30.809Z</time>
      </trkpt>
      <trkpt lat="51.968433" lon="6.714877">
        <ele>36.998542</ele>
        <time>2020-10-03T19:58:32.467Z</time>
      </trkpt>
      <trkpt lat="51.968784" lon="6.714530">
        <ele>36.983478</ele>
        <time>2020-10-03T19:58:41.399Z</time>
      </trkpt>
      <trkpt lat="51.968905" lon="6.714570">
        <ele>36.978952</ele>
        <time>2020-10-03T19:58:43.978Z</time>
      </trkpt>
      <trkpt lat="51.968918" lon="6.714586">
        <ele>36.978354</ele>
        <time>2020-10-03T19:58:44.437Z</time>
      </trkpt>
      <trkpt lat="51.968923" lon="6.714595">
        <ele>36.978080</ele>
        <time>2020-10-03T19:58:44.609Z</time>
      </trkpt>
      <trkpt lat="51.968935" lon="6.714616">
        <ele>36.977433</ele>
        <time>2020-10-03T19:58:44.999Z</time>
      </trkpt>
      <trkpt lat="51.968950" lon="6.714640">
        <ele>36.976661</ele>
        <time>2020-10-03T19:58:45.454Z</time>
      </trkpt>
      <trkpt lat="51.968959" lon="6.714658">
        <ele>36.976138</ele>
        <time>2020-10-03T19:58:45.765Z</time>
      </trkpt>
      <trkpt lat="51.968969" lon="6.714676">
        <ele>36.975590</ele>
        <time>2020-10-03T19:58:46.090Z</time>
      </trkpt>
      <trkpt lat="51.968981" lon="6.714702">
        <ele>36.974857</ele>
        <time>2020-10-03T19:58:46.514Z</time>
      </trkpt>
      <trkpt lat="51.968994" lon="6.714724">
        <ele>36.974168</ele>
        <time>2020-10-03T19:58:46.933Z</time>
      </trkpt>
      <trkpt lat="51.969017" lon="6.714771">
        <ele>36.972813</ele>
        <time>2020-10-03T19:58:47.760Z</time>
      </trkpt>
      <trkpt lat="51.968994" lon="6.714812">
        <ele>36.971561</ele>
        <time>2020-10-03T19:58:48.453Z</time>
      </trkpt>
      <trkpt lat="51.968938" lon="6.714881">
        <ele>36.968984</ele>
        <time>2020-10-03T19:58:49.961Z</time>
      </trkpt>
      <trkpt lat="51.968900" lon="6.714910">
        <ele>36.967444</ele>
        <time>2020-10-03T19:58:50.845Z</time>
      </trkpt>
      <trkpt lat="51.968904" lon="6.714927">
        <ele>36.967034</ele>
        <time>2020-10-03T19:58:51.093Z</time>
      </trkpt>
      <trkpt lat="51.968915" lon="6.714981">
        <ele>36.965749</ele>
        <time>2020-10-03T19:58:51.901Z</time>
      </trkpt>
      <trkpt lat="51.968984" lon="6.714944">
        <ele>36.963086</ele>
        <time>2020-10-03T19:58:53.760Z</time>
      </trkpt>
      <trkpt lat="51.969554" lon="6.715358">
        <ele>36.993999</ele>
        <time>2020-10-03T19:59:08.434Z</time>
      </trkpt>
      <trkpt lat="51.969650" lon="6.715566">
        <ele>37.038780</ele>
        <time>2020-10-03T19:59:12.515Z</time>
      </trkpt>
      <trkpt lat="51.969915" lon="6.716078">
        <ele>37.154001</ele>
        <time>2020-10-03T19:59:22.206Z</time>
      </trkpt>
      <trkpt lat="51.969948" lon="6.716168">
        <ele>37.172048</ele>
        <time>2020-10-03T19:59:23.656Z</time>
      </trkpt>
      <trkpt lat="51.970030" lon="6.716150">
        <ele>37.195190</ele>
        <time>2020-10-03T19:59:25.619Z</time>
      </trkpt>
      <trkpt lat="51.970150" lon="6.716090">
        <ele>37.230308</ele>
        <time>2020-10-03T19:59:28.904Z</time>
      </trkpt>
      <trkpt lat="51.970350" lon="6.715999">
        <ele>37.288400</ele>
        <time>2020-10-03T19:59:33.780Z</time>
      </trkpt>
      <trkpt lat="51.970439" lon="6.715951">
        <ele>37.314630</ele>
        <time>2020-10-03T19:59:36.261Z</time>
      </trkpt>
      <trkpt lat="51.970743" lon="6.715693">
        <ele>37.410573</ele>
        <time>2020-10-03T19:59:44.842Z</time>
      </trkpt>
      <trkpt lat="51.971190" lon="6.715660">
        <ele>37.449477</ele>
        <time>2020-10-03T19:59:58.847Z</time>
      </trkpt>
      <trkpt lat="51.971326" lon="6.715686">
        <ele>37.449477</ele>
        <time>2020-10-03T20:00:02.947Z</time>
      </trkpt>
      <trkpt lat="51.971332" lon="6.716105">
        <ele>37.449477</ele>
        <time>2020-10-03T20:00:11.215Z</time>
      </trkpt>
      <trkpt lat="51.971369" lon="6.716346">
        <ele>37.449477</ele>
        <time>2020-10-03T20:00:15.838Z</time>
      </trkpt>
      <trkpt lat="51.971447" lon="6.716495">
        <ele>37.449477</ele>
        <time>2020-10-03T20:00:19.616Z</time>
      </trkpt>
      <trkpt lat="51.971520" lon="6.716540">
        <ele>37.449477</ele>
        <time>2020-10-03T20:00:22.093Z</time>
      </trkpt>
      <trkpt lat="51.971508" lon="6.716629">
        <ele>37.449477</ele>
        <time>2020-10-03T20:00:23.782Z</time>
      </trkpt>
      <trkpt lat="51.971545" lon="6.716803">
        <ele>37.449477</ele>
        <time>2020-10-03T20:00:27.206Z</time>
      </trkpt>
      <trkpt lat="51.971702" lon="6.717036">
        <ele>37.449477</ele>
        <time>2020-10-03T20:00:33.724Z</time>
      </trkpt>
      <trkpt lat="51.971825" lon="6.717203">
        <ele>37.449477</ele>
        <time>2020-10-03T20:00:38.522Z</time>
      </trkpt>
      <trkpt lat="51.971878" lon="6.717219">
        <ele>37.449477</ele>
        <time>2020-10-03T20:00:40.128Z</time>
      </trkpt>
      <trkpt lat="51.972088" lon="6.717386">
        <ele>37.449477</ele>
        <time>2020-10-03T20:00:47.234Z</time>
      </trkpt>
      <trkpt lat="51.972307" lon="6.717575">
        <ele>37.449477</ele>
        <time>2020-10-03T20:00:54.849Z</time>
      </trkpt>
      <trkpt lat="51.972376" lon="6.717635">
        <ele>37.449477</ele>
        <time>2020-10-03T20:00:57.193Z</time>
      </trkpt>
      <trkpt lat="51.972334" lon="6.717934">
        <ele>37.449477</ele>
        <time>2020-10-03T20:01:02.789Z</time>
      </trkpt>
    </trkseg>
  </trk>
</gpx>